createdAt,value
2019-02-22T00:03:29.077Z,15.00
2019-02-22T00:06:16.981Z,15.10
2019-02-22T00:12:03.650Z,15.10
2019-02-22T00:14:51.564Z,14.47
2019-02-22T00:17:39.470Z,13.87
2019-02-22T00:20:27.456Z,15.40
2019-02-22T00:23:15.638Z,14.63
2019-02-22T00:26:15.212Z,18.80
2019-02-22T00:28:56.434Z,14.00
2019-02-22T00:31:36.918Z,14.40
2019-02-22T00:34:17.530Z,14.47
2019-02-22T00:36:58.290Z,13.47
2019-02-22T00:39:39.091Z,13.07
2019-02-22T00:42:19.390Z,13.73
2019-02-22T00:45:00.127Z,13.27
2019-02-22T00:47:40.727Z,13.57
2019-02-22T00:53:26.408Z,13.23
2019-02-22T00:56:06.966Z,13.17
2019-02-22T00:58:47.562Z,13.47
2019-02-22T01:01:28.075Z,13.23
2019-02-22T01:04:08.791Z,12.87
2019-02-22T01:06:49.632Z,12.60
2019-02-22T01:09:29.921Z,13.37
2019-02-22T01:12:10.566Z,11.57
2019-02-22T01:14:51.253Z,13.47
2019-02-22T01:17:31.977Z,12.97
2019-02-22T01:20:12.451Z,12.47
2019-02-22T01:22:52.943Z,12.97
2019-02-22T01:25:33.389Z,13.47
2019-02-22T01:28:14.200Z,13.43
2019-02-22T01:30:55.358Z,14.17
2019-02-22T01:33:35.856Z,12.70
2019-02-22T01:36:16.319Z,13.30
2019-02-22T01:38:57.047Z,13.13
2019-02-22T01:41:38.154Z,16.10
2019-02-22T01:44:19.121Z,13.67
2019-02-22T01:46:59.873Z,14.03
2019-02-22T01:49:40.419Z,14.00
2019-02-22T01:52:21.451Z,12.67
2019-02-22T01:55:02.227Z,13.30
2019-02-22T01:57:42.795Z,13.27
2019-02-22T02:00:23.416Z,13.50
2019-02-22T02:03:03.995Z,13.83
2019-02-22T02:05:44.371Z,13.37
2019-02-22T02:08:24.755Z,16.35
2019-02-22T02:11:05.740Z,13.53
2019-02-22T02:17:05.998Z,13.47
2019-02-22T02:19:46.638Z,13.13
2019-02-22T02:22:27.363Z,13.87
2019-02-22T02:25:08.031Z,13.63
2019-02-22T02:27:48.834Z,13.50
2019-02-22T02:30:29.755Z,13.47
2019-02-22T02:33:10.770Z,13.87
2019-02-22T02:35:51.751Z,13.30
2019-02-22T02:38:32.381Z,13.27
2019-02-22T02:41:13.374Z,14.43
2019-02-22T02:43:54.323Z,13.33
2019-02-22T02:46:34.923Z,14.60
2019-02-22T02:49:15.240Z,13.43
2019-02-22T02:51:55.678Z,13.47
2019-02-22T02:54:35.970Z,13.57
2019-02-22T02:57:16.811Z,14.00
2019-02-22T02:59:57.090Z,14.77
2019-02-22T03:02:37.552Z,14.37
2019-02-22T03:05:18.271Z,13.30
2019-02-22T03:08:00.094Z,13.77
2019-02-22T03:10:40.967Z,13.60
2019-02-22T03:13:21.650Z,14.23
2019-02-22T03:16:02.441Z,14.07
2019-02-22T03:18:43.286Z,14.50
2019-02-22T03:21:23.794Z,14.77
2019-02-22T03:24:06.654Z,13.87
2019-02-22T03:26:47.532Z,14.77
2019-02-22T03:29:28.470Z,14.67
2019-02-22T03:32:09.421Z,14.37
2019-02-22T03:34:50.031Z,14.47
2019-02-22T03:37:30.762Z,14.43
2019-02-22T03:40:11.226Z,14.17
2019-02-22T03:42:52.142Z,15.70
2019-02-22T03:45:33.065Z,14.63
2019-02-22T03:48:13.931Z,14.83
2019-02-22T03:50:54.755Z,14.47
2019-02-22T03:56:40.523Z,15.33
2019-02-22T03:59:21.310Z,14.70
2019-02-22T04:02:01.858Z,15.10
2019-02-22T04:04:42.831Z,15.43
2019-02-22T04:07:23.749Z,15.60
2019-02-22T04:10:04.702Z,15.53
2019-02-22T04:12:45.218Z,15.20
2019-02-22T04:15:25.579Z,15.53
2019-02-22T04:18:06.279Z,14.80
2019-02-22T04:20:46.866Z,14.70
2019-02-22T04:23:27.211Z,15.13
2019-02-22T04:26:07.570Z,14.37
2019-02-22T04:28:48.131Z,14.87
2019-02-22T04:31:28.904Z,15.13
2019-02-22T04:34:09.669Z,15.03
2019-02-22T04:36:50.494Z,15.93
2019-02-22T04:39:31.254Z,15.30
2019-02-22T04:42:11.698Z,14.23
2019-02-22T04:44:52.586Z,15.43
2019-02-22T04:47:33.191Z,14.23
2019-02-22T04:50:13.815Z,14.30
2019-02-22T04:52:54.375Z,15.30
2019-02-22T04:55:35.225Z,14.17
2019-02-22T04:58:15.849Z,14.83
2019-02-22T05:00:56.472Z,16.50
2019-02-22T05:03:36.858Z,14.93
2019-02-22T05:06:17.231Z,16.77
2019-02-22T05:08:57.946Z,14.27
2019-02-22T05:11:38.736Z,15.47
2019-02-22T05:14:19.379Z,16.20
2019-02-22T05:17:00.442Z,15.90
2019-02-22T05:19:41.157Z,15.33
2019-02-22T05:22:21.495Z,16.27
2019-02-22T05:25:02.318Z,16.10
2019-02-22T05:27:42.784Z,16.07
2019-02-22T05:30:23.547Z,15.37
2019-02-22T05:33:04.418Z,15.47
2019-02-22T05:35:45.209Z,16.67
2019-02-22T05:38:26.087Z,15.77
2019-02-22T05:41:06.753Z,15.70
2019-02-22T05:43:47.258Z,16.60
2019-02-22T05:46:27.627Z,16.63
2019-02-22T05:49:08.354Z,16.90
2019-02-22T05:51:48.923Z,16.30
2019-02-22T05:54:29.864Z,16.20
2019-02-22T05:57:10.620Z,15.67
2019-02-22T05:59:39.175Z,16.53
2019-02-22T06:02:27.046Z,16.83
2019-02-22T06:04:55.541Z,15.50
2019-02-22T06:07:43.490Z,16.43
2019-02-22T06:10:31.330Z,16.97
2019-02-22T06:13:19.213Z,17.27
2019-02-22T06:16:07.127Z,16.20
2019-02-22T06:18:55.011Z,16.60
2019-02-22T06:21:42.914Z,16.20
2019-02-22T06:24:23.694Z,16.67
2019-02-22T06:27:04.142Z,16.17
2019-02-22T06:29:44.430Z,17.27
2019-02-22T06:32:25.381Z,16.00
2019-02-22T06:35:08.696Z,16.50
2019-02-22T06:37:48.411Z,17.03
2019-02-22T06:40:29.107Z,16.97
2019-02-22T06:43:09.513Z,16.53
2019-02-22T06:45:50.051Z,15.77
2019-02-22T06:48:30.643Z,17.07
2019-02-22T06:51:11.567Z,16.63
2019-02-22T06:53:52.431Z,16.77
2019-02-22T06:56:33.399Z,17.07
2019-02-22T06:59:13.865Z,16.33
2019-02-22T07:01:54.725Z,16.53
2019-02-22T07:04:35.386Z,16.87
2019-02-22T07:07:15.914Z,16.27
2019-02-22T07:09:56.718Z,17.10
2019-02-22T07:12:38.958Z,18.63
2019-02-22T07:15:19.911Z,18.50
2019-02-22T07:18:00.522Z,17.87
2019-02-22T07:20:41.812Z,17.33
2019-02-22T07:23:23.125Z,17.80
2019-02-22T07:26:04.258Z,17.47
2019-02-22T07:28:45.081Z,17.90
2019-02-22T07:31:26.078Z,18.13
2019-02-22T07:34:06.868Z,19.37
2019-02-22T07:36:48.159Z,18.80
2019-02-22T07:39:29.398Z,19.67
2019-02-22T07:42:10.278Z,20.03
2019-02-22T07:44:51.102Z,19.90
2019-02-22T07:47:31.523Z,20.23
2019-02-22T07:50:12.119Z,19.80
2019-02-22T07:52:52.949Z,19.30
2019-02-22T07:55:33.661Z,19.53
2019-02-22T07:58:14.570Z,18.17
2019-02-22T08:00:55.398Z,17.77
2019-02-22T08:03:37.425Z,17.33
2019-02-22T08:06:37.802Z,17.30
2019-02-22T08:09:18.667Z,17.73
2019-02-22T08:11:59.743Z,17.53
2019-02-22T08:14:40.982Z,16.93
2019-02-22T08:17:21.714Z,17.07
2019-02-22T08:20:02.475Z,17.03
2019-02-22T08:22:43.566Z,17.10
2019-02-22T08:25:24.266Z,16.03
2019-02-22T08:28:04.937Z,16.80
2019-02-22T08:30:45.962Z,16.80
2019-02-22T08:33:26.706Z,16.17
2019-02-22T08:36:07.821Z,15.77
2019-02-22T08:38:48.406Z,14.80
2019-02-22T08:41:29.242Z,15.23
2019-02-22T08:44:09.670Z,14.03
2019-02-22T08:46:50.547Z,14.00
2019-02-22T08:49:31.306Z,13.77
2019-02-22T08:52:12.232Z,13.67
2019-02-22T08:54:52.966Z,14.40
2019-02-22T08:57:33.336Z,13.60
2019-02-22T09:00:14.230Z,13.80
2019-02-22T09:02:55.432Z,12.90
2019-02-22T09:05:35.726Z,13.30
2019-02-22T09:08:16.548Z,13.53
2019-02-22T09:11:00.455Z,13.47
2019-02-22T09:13:43.478Z,12.40
2019-02-22T09:16:22.490Z,12.10
2019-02-22T09:19:02.934Z,12.90
2019-02-22T09:21:44.195Z,12.23
2019-02-22T09:24:24.703Z,13.10
2019-02-22T09:27:05.347Z,12.47
2019-02-22T09:29:46.134Z,12.00
2019-02-22T09:32:26.844Z,11.93
2019-02-22T09:35:07.282Z,12.20
2019-02-22T09:37:48.274Z,12.23
2019-02-22T09:40:29.143Z,12.20
2019-02-22T09:43:09.689Z,12.03
2019-02-22T09:45:50.289Z,12.30
2019-02-22T09:48:30.895Z,11.60
2019-02-22T09:51:11.491Z,10.70
2019-02-22T09:53:52.379Z,10.00
2019-02-22T09:56:33.226Z,10.67
2019-02-22T09:59:14.294Z,10.20
2019-02-22T10:01:55.090Z,9.67
2019-02-22T10:04:35.770Z,9.93
2019-02-22T10:07:16.574Z,10.17
2019-02-22T10:09:57.329Z,9.97
2019-02-22T10:12:38.007Z,9.97
2019-02-22T10:15:18.818Z,9.37
2019-02-22T10:17:59.534Z,9.13
2019-02-22T10:20:40.566Z,9.60
2019-02-22T10:23:21.683Z,9.97
2019-02-22T10:26:02.424Z,9.23
2019-02-22T10:28:42.952Z,9.17
2019-02-22T10:31:23.818Z,9.93
2019-02-22T10:34:04.352Z,9.20
2019-02-22T10:36:45.566Z,10.00
2019-02-22T10:39:26.184Z,9.43
2019-02-22T10:42:06.640Z,8.67
2019-02-22T10:44:47.370Z,9.37
2019-02-22T10:47:27.847Z,9.60
2019-02-22T10:50:08.710Z,9.50
2019-02-22T10:52:49.269Z,9.07
2019-02-22T10:55:29.819Z,9.83
2019-02-22T10:58:10.380Z,7.27
2019-02-22T11:00:50.950Z,7.53
2019-02-22T11:03:31.405Z,7.40
2019-02-22T11:06:11.925Z,7.37
2019-02-22T11:08:52.550Z,8.07
2019-02-22T11:11:33.354Z,6.93
2019-02-22T11:14:14.197Z,6.97
2019-02-22T11:16:54.768Z,7.10
2019-02-22T11:19:35.333Z,7.00
2019-02-22T11:22:15.976Z,6.53
2019-02-22T11:24:56.498Z,7.67
2019-02-22T11:27:37.361Z,6.90
2019-02-22T11:30:18.244Z,6.73
2019-02-22T11:32:58.682Z,6.40
2019-02-22T11:35:39.398Z,6.60
2019-02-22T11:38:19.810Z,6.73
2019-02-22T11:41:00.407Z,5.90
2019-02-22T11:43:41.343Z,5.63
2019-02-22T11:46:21.687Z,6.00
2019-02-22T11:49:02.562Z,5.93
2019-02-22T11:51:43.669Z,5.63
2019-02-22T11:54:23.994Z,4.90
2019-02-22T11:57:04.982Z,4.90
2019-02-22T11:59:45.758Z,5.87
2019-02-22T12:02:26.464Z,5.10
2019-02-22T12:05:06.975Z,4.90
2019-02-22T12:07:48.170Z,5.10
2019-02-22T12:10:28.641Z,4.63
2019-02-22T12:13:08.934Z,5.13
2019-02-22T12:15:50.147Z,5.20
2019-02-22T12:18:30.845Z,4.80
2019-02-22T12:21:11.610Z,4.53
2019-02-22T12:23:52.987Z,4.30
2019-02-22T12:26:33.784Z,4.50
2019-02-22T12:29:14.439Z,4.47
2019-02-22T12:31:55.204Z,4.70
2019-02-22T12:34:35.892Z,4.60
2019-02-22T12:37:16.295Z,4.37
2019-02-22T12:39:57.013Z,4.40
2019-02-22T12:42:37.754Z,3.80
2019-02-22T12:45:18.298Z,3.90
2019-02-22T12:47:58.796Z,4.13
2019-02-22T12:50:39.498Z,4.07
2019-02-22T12:53:20.238Z,4.30
2019-02-22T12:56:01.059Z,3.90
2019-02-22T12:58:41.891Z,3.70
2019-02-22T13:01:24.555Z,4.20
2019-02-22T13:04:05.290Z,4.00
2019-02-22T13:06:46.106Z,4.10
2019-02-22T13:09:36.425Z,4.10
2019-02-22T13:12:13.931Z,4.20
2019-02-22T13:14:51.499Z,4.40
2019-02-22T13:17:32.247Z,5.30
2019-02-22T13:20:12.883Z,4.97
2019-02-22T13:22:53.286Z,7.03
2019-02-22T13:25:33.918Z,6.60
2019-02-22T13:28:14.730Z,5.63
2019-02-22T13:30:55.312Z,6.90
2019-02-22T13:33:35.620Z,6.63
2019-02-22T13:36:16.310Z,5.77
2019-02-22T13:38:56.713Z,5.90
2019-02-22T13:41:37.310Z,6.80
2019-02-22T13:44:18.202Z,5.73
2019-02-22T13:46:58.957Z,5.90
2019-02-22T13:49:39.767Z,5.37
2019-02-22T13:52:20.576Z,6.20
2019-02-22T13:55:00.963Z,5.83
2019-02-22T13:57:41.709Z,6.10
2019-02-22T14:00:22.493Z,6.23
2019-02-22T14:03:04.957Z,6.10
2019-02-22T14:05:45.636Z,6.13
2019-02-22T14:08:26.822Z,5.37
2019-02-22T14:11:07.523Z,5.73
2019-02-22T14:13:48.510Z,4.80
2019-02-22T14:16:29.766Z,4.87
2019-02-22T14:19:10.093Z,4.60
2019-02-22T14:21:50.983Z,5.00
2019-02-22T14:24:31.517Z,4.33
2019-02-22T14:27:12.022Z,4.63
2019-02-22T14:29:52.847Z,4.67
2019-02-22T14:32:33.699Z,4.90
2019-02-22T14:35:14.571Z,4.57
2019-02-22T14:37:55.236Z,4.87
2019-02-22T14:40:36.000Z,5.03
2019-02-22T14:43:17.115Z,4.40
2019-02-22T14:45:58.762Z,4.73
2019-02-22T14:48:39.510Z,4.60
2019-02-22T14:51:20.197Z,4.70
2019-02-22T14:54:00.727Z,4.60
2019-02-22T14:56:41.170Z,4.73
2019-02-22T14:59:22.111Z,4.47
2019-02-22T15:02:02.866Z,4.90
2019-02-22T15:04:43.491Z,4.33
2019-02-22T15:07:24.271Z,4.20
2019-02-22T15:10:05.026Z,4.33
2019-02-22T15:12:45.923Z,5.20
2019-02-22T15:15:28.138Z,5.30
2019-02-22T15:18:09.341Z,5.33
2019-02-22T15:20:49.826Z,5.63
2019-02-22T15:23:30.475Z,6.03
2019-02-22T15:26:11.018Z,6.17
2019-02-22T15:28:51.731Z,6.17
2019-02-22T15:31:36.101Z,6.87
2019-02-22T15:34:15.096Z,6.67
2019-02-22T15:36:55.778Z,6.40
2019-02-22T15:39:36.290Z,6.97
2019-02-22T15:42:16.564Z,7.07
2019-02-22T15:44:57.029Z,6.90
2019-02-22T15:47:37.348Z,7.27
2019-02-22T15:50:17.844Z,7.47
2019-02-22T15:52:58.459Z,8.17
2019-02-22T15:55:38.978Z,8.40
2019-02-22T15:58:19.487Z,9.17
2019-02-22T16:01:00.287Z,9.33
2019-02-22T16:04:00.145Z,9.60
2019-02-22T16:06:40.999Z,9.30
2019-02-22T16:09:21.862Z,9.27
2019-02-22T16:12:02.779Z,8.23
2019-02-22T16:14:43.374Z,8.50
2019-02-22T16:17:24.057Z,7.93
2019-02-22T16:20:05.023Z,7.83
2019-02-22T16:22:45.998Z,8.63
2019-02-22T16:25:26.730Z,8.67
2019-02-22T16:28:07.611Z,9.03
2019-02-22T16:30:48.147Z,8.30
2019-02-22T16:33:28.924Z,9.43
2019-02-22T16:36:09.690Z,9.53
2019-02-22T16:38:50.345Z,9.90
2019-02-22T16:41:30.934Z,9.77
2019-02-22T16:43:59.502Z,9.23
2019-02-22T16:46:47.374Z,9.07
2019-02-22T16:49:35.279Z,8.50
2019-02-22T16:52:23.164Z,8.27
2019-02-22T16:55:31.830Z,8.60
2019-02-22T16:58:19.706Z,7.83
2019-02-22T17:01:07.610Z,8.50
2019-02-22T17:03:55.530Z,8.20
2019-02-22T17:06:43.399Z,8.13
2019-02-22T17:09:33.243Z,8.03
2019-02-22T17:12:20.745Z,8.23
2019-02-22T17:15:27.969Z,7.37
2019-02-22T17:18:15.849Z,7.63
2019-02-22T17:21:03.749Z,7.20
2019-02-22T17:23:51.625Z,7.20
2019-02-22T17:26:31.915Z,7.70
2019-02-22T17:29:12.447Z,7.77
2019-02-22T17:31:52.702Z,7.63
2019-02-22T17:34:33.365Z,8.23
2019-02-22T17:37:14.264Z,8.23
2019-02-22T17:39:55.130Z,8.07
2019-02-22T17:42:36.014Z,8.07
2019-02-22T17:45:16.860Z,8.47
2019-02-22T17:47:57.256Z,8.27
2019-02-22T17:50:38.266Z,8.50
2019-02-22T17:53:19.058Z,8.53
2019-02-22T17:56:00.079Z,8.83
2019-02-22T17:58:40.890Z,8.20
2019-02-22T18:01:21.608Z,8.20
2019-02-22T18:04:02.150Z,8.43
2019-02-22T18:06:45.086Z,7.57
2019-02-22T18:09:24.732Z,7.77
2019-02-22T18:12:05.207Z,8.43
2019-02-22T18:14:45.725Z,7.67
2019-02-22T18:17:26.981Z,7.90
2019-02-22T18:20:07.953Z,7.47
2019-02-22T18:22:48.550Z,7.50
2019-02-22T18:25:29.255Z,8.17
2019-02-22T18:28:10.015Z,7.83
2019-02-22T18:30:50.622Z,7.40
2019-02-22T18:33:30.999Z,7.90
2019-02-22T18:36:11.698Z,7.50
2019-02-22T18:38:52.034Z,7.47
2019-02-22T18:41:32.831Z,8.20
2019-02-22T18:44:13.147Z,7.97
2019-02-22T18:46:54.078Z,7.33
2019-02-22T18:49:34.726Z,8.00
2019-02-22T18:52:15.546Z,7.90
2019-02-22T18:54:56.325Z,7.33
2019-02-22T18:57:36.667Z,7.53
2019-02-22T19:00:17.945Z,8.17
2019-02-22T19:02:58.614Z,8.20
2019-02-22T19:05:27.210Z,8.73
2019-02-22T19:08:15.150Z,8.33
2019-02-22T19:11:02.982Z,8.93
2019-02-22T19:13:50.858Z,9.70
2019-02-22T19:16:38.754Z,9.50
2019-02-22T19:19:07.319Z,10.53
2019-02-22T19:21:55.210Z,11.20
2019-02-22T19:24:43.092Z,10.80
2019-02-22T19:27:30.987Z,11.83
2019-02-22T19:30:39.514Z,12.87
2019-02-22T19:33:27.418Z,11.87
2019-02-22T19:36:15.321Z,14.00
2019-02-22T19:39:03.269Z,14.67
2019-02-22T19:45:22.119Z,16.77
2019-02-22T19:48:10.569Z,16.93
2019-02-22T19:50:58.417Z,18.50
2019-02-22T19:53:47.064Z,18.10
2019-02-22T19:56:36.253Z,17.63
2019-02-22T19:59:24.131Z,19.00
2019-02-22T20:02:12.343Z,18.03
2019-02-22T20:05:00.356Z,17.77
2019-02-22T20:07:48.595Z,18.03
2019-02-22T20:10:36.510Z,19.70
2019-02-22T20:13:24.464Z,18.83
2019-02-22T20:16:12.729Z,19.20
2019-02-22T20:22:07.722Z,18.03
2019-02-22T20:24:55.607Z,20.50
2019-02-22T20:27:36.836Z,19.60
2019-02-22T20:30:17.419Z,20.87
2019-02-22T20:32:58.358Z,20.47
2019-02-22T20:35:39.389Z,21.07
2019-02-22T20:38:20.214Z,19.67
2019-02-22T20:41:01.173Z,19.43
2019-02-22T20:46:50.385Z,19.10
2019-02-22T20:49:31.093Z,19.70
2019-02-22T20:52:11.910Z,19.77
2019-02-22T20:54:54.575Z,20.43
2019-02-22T20:57:35.726Z,19.33
2019-02-22T21:00:16.682Z,19.33
2019-02-22T21:02:57.082Z,19.73
2019-02-22T21:05:37.711Z,19.00
2019-02-22T21:08:18.379Z,20.50
2019-02-22T21:10:58.851Z,19.60
2019-02-22T21:13:39.595Z,18.50
2019-02-22T21:16:20.037Z,20.00
2019-02-22T21:19:01.037Z,20.30
2019-02-22T21:21:41.628Z,18.53
2019-02-22T21:24:22.466Z,19.53
2019-02-22T21:27:02.878Z,18.40
2019-02-22T21:29:43.629Z,17.70
2019-02-22T21:32:24.267Z,17.57
2019-02-22T21:35:04.792Z,17.40
2019-02-22T21:37:45.366Z,15.67
2019-02-22T21:40:26.202Z,15.27
2019-02-22T21:43:06.632Z,13.70
2019-02-22T21:45:47.641Z,13.17
2019-02-22T21:48:30.784Z,12.07
2019-02-22T21:54:30.379Z,10.77
2019-02-22T22:00:30.353Z,11.87
2019-02-22T22:03:10.963Z,10.30
2019-02-22T22:05:51.905Z,10.93
2019-02-22T22:08:32.526Z,10.40
2019-02-22T22:11:13.206Z,10.27
2019-02-22T22:13:53.838Z,11.03
2019-02-22T22:16:34.442Z,10.17
2019-02-22T22:22:23.817Z,10.37
2019-02-22T22:25:04.961Z,10.77
2019-02-22T22:27:46.153Z,10.67
2019-02-22T22:30:26.640Z,10.90
2019-02-22T22:36:24.390Z,9.60
2019-02-22T22:39:05.049Z,10.00
2019-02-22T22:41:45.558Z,10.10
2019-02-22T22:44:26.349Z,9.93
2019-02-22T22:50:26.267Z,9.67
2019-02-22T22:53:06.750Z,9.23
2019-02-22T22:55:47.735Z,10.20
2019-02-22T22:58:28.135Z,10.33
2019-02-22T23:01:10.314Z,9.47
2019-02-22T23:03:51.073Z,9.67
2019-02-22T23:09:37.098Z,9.80
2019-02-22T23:15:36.734Z,9.40
2019-02-22T23:18:17.306Z,9.33
2019-02-22T23:20:58.117Z,9.73
2019-02-22T23:23:38.815Z,9.40
2019-02-22T23:26:19.667Z,9.97
2019-02-22T23:29:01.831Z,10.00
2019-02-22T23:31:42.706Z,9.50
2019-02-22T23:34:23.262Z,10.10
2019-02-22T23:37:03.671Z,10.10
2019-02-22T23:39:44.285Z,9.43
2019-02-22T23:42:25.080Z,10.47
2019-02-22T23:45:05.465Z,10.63
2019-02-22T23:47:45.912Z,10.13
2019-02-22T23:50:26.715Z,10.27
2019-02-22T23:53:07.702Z,10.60
2019-02-22T23:55:48.202Z,10.03
2019-02-22T23:58:29.227Z,10.17
